createdAt,value
2023-03-28T00:00:31.676Z,70.30
2023-03-28T00:03:39.471Z,71.20
2023-03-28T00:06:45.646Z,72.50
2023-03-28T00:09:51.316Z,73.00
2023-03-28T00:12:54.439Z,73.70
2023-03-28T00:16:03.758Z,73.80
2023-03-28T00:19:09.646Z,73.60
2023-03-28T00:22:12.628Z,73.50
2023-03-28T00:25:17.176Z,73.30
2023-03-28T00:28:20.324Z,72.60
2023-03-28T00:31:24.508Z,72.30
2023-03-28T00:34:27.635Z,72.60
2023-03-28T00:37:31.711Z,73.10
2023-03-28T00:40:39.677Z,73.50
2023-03-28T00:43:45.511Z,74.00
2023-03-28T00:46:48.806Z,74.10
2023-03-28T00:49:53.882Z,74.10
2023-03-28T00:53:04.570Z,73.70
2023-03-28T00:56:12.659Z,73.60
2023-03-28T00:59:20.479Z,72.90
2023-03-28T01:02:23.546Z,72.30
2023-03-28T01:05:29.260Z,72.20
2023-03-28T01:08:39.603Z,72.10
2023-03-28T01:11:46.583Z,72.00
2023-03-28T01:14:49.662Z,72.00
2023-03-28T01:17:53.215Z,72.00
2023-03-28T01:21:49.384Z,71.90
2023-03-28T01:25:36.472Z,71.90
2023-03-28T01:29:13.728Z,71.50
2023-03-28T01:32:55.361Z,71.10
2023-03-28T01:36:39.871Z,71.10
2023-03-28T01:40:11.307Z,71.50
2023-03-28T01:43:31.751Z,71.30
2023-03-28T01:46:39.212Z,71.40
2023-03-28T01:49:49.118Z,71.40
2023-03-28T01:53:03.378Z,71.10
2023-03-28T01:56:12.314Z,71.30
2023-03-28T01:59:21.039Z,71.30
2023-03-28T02:02:30.578Z,71.50
2023-03-28T02:05:38.481Z,71.90
2023-03-28T02:08:45.759Z,73.00
2023-03-28T02:11:51.376Z,73.40
2023-03-28T02:14:57.922Z,73.30
2023-03-28T02:18:05.358Z,73.50
2023-03-28T02:21:11.968Z,74.00
2023-03-28T02:24:16.429Z,74.40
2023-03-28T02:27:22.559Z,74.50
2023-03-28T02:30:26.003Z,74.50
2023-03-28T02:33:39.412Z,74.50
2023-03-28T02:36:49.707Z,74.80
2023-03-28T02:40:07.252Z,74.90
2023-03-28T02:43:27.629Z,74.60
2023-03-28T02:46:35.085Z,74.10
2023-03-28T02:49:50.923Z,73.70
2023-03-28T02:53:03.575Z,73.20
2023-03-28T02:56:13.279Z,72.80
2023-03-28T02:59:19.685Z,72.20
2023-03-28T03:02:23.982Z,72.00
2023-03-28T03:05:27.138Z,71.90
2023-03-28T03:08:30.125Z,71.20
2023-03-28T03:11:34.572Z,70.90
2023-03-28T03:14:38.970Z,70.30
2023-03-28T03:17:41.933Z,70.00
2023-03-28T03:20:47.909Z,69.90
2023-03-28T03:23:51.225Z,70.00
2023-03-28T03:26:55.828Z,70.00
2023-03-28T03:29:58.985Z,70.10
2023-03-28T03:33:05.786Z,70.30
2023-03-28T03:36:12.756Z,70.50
2023-03-28T03:39:15.834Z,70.90
2023-03-28T03:42:20.425Z,71.40
2023-03-28T03:45:23.488Z,71.80
2023-03-28T03:48:26.547Z,72.10
2023-03-28T03:51:29.583Z,72.30
2023-03-28T03:54:32.884Z,72.50
2023-03-28T03:57:37.412Z,72.60
2023-03-28T04:00:40.386Z,73.20
2023-03-28T04:03:43.657Z,73.20
2023-03-28T04:06:46.625Z,73.30
2023-03-28T04:09:49.638Z,73.40
2023-03-28T04:12:54.980Z,73.40
2023-03-28T04:15:58.414Z,73.50
2023-03-28T04:19:02.100Z,73.40
2023-03-28T04:22:07.999Z,73.60
2023-03-28T04:25:11.064Z,73.50
2023-03-28T04:28:17.056Z,73.50
2023-03-28T04:31:21.904Z,73.60
2023-03-28T04:34:30.048Z,73.50
2023-03-28T04:37:33.454Z,73.50
2023-03-28T04:40:39.744Z,73.60
2023-03-28T04:43:44.298Z,73.40
2023-03-28T04:46:48.934Z,73.30
2023-03-28T04:49:52.591Z,73.40
2023-03-28T04:52:55.662Z,73.20
2023-03-28T04:56:00.163Z,73.50
2023-03-28T04:59:07.756Z,73.60
2023-03-28T05:02:11.037Z,73.50
2023-03-28T05:05:14.111Z,73.30
2023-03-28T05:08:19.111Z,73.20
2023-03-28T05:11:23.169Z,73.20
2023-03-28T05:14:27.913Z,73.00
2023-03-28T05:17:30.931Z,73.00
2023-03-28T05:20:34.891Z,72.90
2023-03-28T05:23:37.929Z,72.80
2023-03-28T05:26:41.224Z,72.50
2023-03-28T05:29:46.716Z,72.30
2023-03-28T05:32:49.975Z,72.20
2023-03-28T05:35:53.609Z,72.00
2023-03-28T05:38:56.619Z,72.50
2023-03-28T05:41:59.645Z,72.50
2023-03-28T05:45:04.786Z,72.30
2023-03-28T05:48:07.867Z,71.70
2023-03-28T05:51:10.946Z,71.70
2023-03-28T05:54:14.115Z,71.40
2023-03-28T05:57:17.882Z,71.10
2023-03-28T06:00:23.584Z,70.70
2023-03-28T06:03:28.063Z,70.40
2023-03-28T06:06:31.228Z,70.50
2023-03-28T06:09:35.082Z,70.50
2023-03-28T06:12:38.251Z,70.60
2023-03-28T06:15:42.813Z,70.30
2023-03-28T06:18:45.800Z,70.20
2023-03-28T06:21:49.031Z,70.30
2023-03-28T06:24:52.140Z,70.00
2023-03-28T06:27:55.894Z,70.00
2023-03-28T06:31:00.916Z,68.60
2023-03-28T06:34:04.184Z,68.00
2023-03-28T06:37:07.436Z,67.80
2023-03-28T06:40:12.016Z,68.00
2023-03-28T06:43:15.302Z,68.50
2023-03-28T06:46:20.535Z,68.10
2023-03-28T06:49:23.846Z,68.20
2023-03-28T06:52:27.095Z,67.90
2023-03-28T06:55:30.237Z,67.70
2023-03-28T06:58:33.211Z,67.60
2023-03-28T07:01:37.632Z,67.00
2023-03-28T07:04:40.782Z,66.30
2023-03-28T07:07:43.955Z,65.70
2023-03-28T07:10:47.004Z,65.30
2023-03-28T07:13:49.945Z,65.60
2023-03-28T07:16:54.991Z,65.50
2023-03-28T07:19:58.072Z,65.10
2023-03-28T07:23:03.812Z,64.30
2023-03-28T07:26:08.424Z,64.70
2023-03-28T07:29:13.610Z,63.40
2023-03-28T07:32:17.969Z,62.70
2023-03-28T07:35:21.089Z,62.60
2023-03-28T07:38:24.372Z,62.60
2023-03-28T07:41:27.526Z,62.80
2023-03-28T07:44:30.629Z,62.90
2023-03-28T07:47:35.324Z,62.80
2023-03-28T07:50:38.322Z,62.00
2023-03-28T07:53:41.392Z,61.50
2023-03-28T07:56:45.302Z,60.30
2023-03-28T07:59:50.402Z,59.10
2023-03-28T08:02:54.776Z,59.00
2023-03-28T08:05:59.164Z,57.70
2023-03-28T08:09:03.752Z,58.20
2023-03-28T08:12:07.069Z,56.60
2023-03-28T08:15:11.604Z,56.40
2023-03-28T08:18:20.893Z,56.20
2023-03-28T08:21:26.690Z,55.70
2023-03-28T08:24:35.791Z,55.20
2023-03-28T08:27:39.369Z,55.90
2023-03-28T08:30:42.361Z,55.90
2023-03-28T08:33:48.605Z,56.10
2023-03-28T08:36:51.603Z,55.50
2023-03-28T08:39:54.805Z,54.60
2023-03-28T08:43:12.420Z,54.40
2023-03-28T08:46:20.149Z,53.40
2023-03-28T08:49:24.934Z,52.90
2023-03-28T08:52:29.334Z,52.80
2023-03-28T08:55:37.948Z,53.20
2023-03-28T08:59:04.986Z,52.90
2023-03-28T09:02:17.999Z,52.40
2023-03-28T09:05:30.408Z,51.50
2023-03-28T09:09:08.289Z,51.70
2023-03-28T09:12:25.557Z,52.00
2023-03-28T09:15:42.020Z,51.60
2023-03-28T09:19:44.676Z,50.90
2023-03-28T09:23:33.532Z,50.60
2023-03-28T09:26:40.694Z,50.80
2023-03-28T09:29:48.288Z,50.20
2023-03-28T09:32:55.290Z,50.10
2023-03-28T09:35:58.753Z,49.00
2023-03-28T09:39:13.355Z,49.00
2023-03-28T09:42:27.698Z,49.20
2023-03-28T09:45:40.722Z,50.10
2023-03-28T09:48:44.122Z,49.10
2023-03-28T09:51:47.510Z,49.50
2023-03-28T09:54:52.565Z,48.20
2023-03-28T09:58:07.631Z,48.50
2023-03-28T10:01:27.078Z,47.20
2023-03-28T10:04:39.368Z,47.20
2023-03-28T10:07:44.732Z,48.20
2023-03-28T10:11:02.681Z,47.20
2023-03-28T10:14:06.406Z,48.00
2023-03-28T10:17:15.210Z,48.00
2023-03-28T10:20:21.472Z,47.80
2023-03-28T10:23:26.115Z,48.60
2023-03-28T10:26:30.894Z,48.40
2023-03-28T10:29:34.444Z,48.20
2023-03-28T10:32:37.469Z,47.60
2023-03-28T10:35:46.385Z,48.00
2023-03-28T10:38:51.081Z,48.30
2023-03-28T10:41:57.954Z,48.60
2023-03-28T10:45:02.276Z,48.20
2023-03-28T10:48:14.778Z,47.10
2023-03-28T10:51:22.152Z,47.70
2023-03-28T10:54:38.962Z,47.50
2023-03-28T10:57:53.888Z,47.60
2023-03-28T11:01:02.129Z,46.90
2023-03-28T11:04:21.218Z,46.40
2023-03-28T11:07:32.407Z,45.30
2023-03-28T11:10:43.281Z,45.00
2023-03-28T11:13:57.896Z,44.20
2023-03-28T11:17:08.472Z,44.70
2023-03-28T11:20:24.949Z,44.70
2023-03-28T11:23:39.808Z,45.20
2023-03-28T11:26:52.958Z,45.60
2023-03-28T11:30:05.381Z,44.80
2023-03-28T11:33:16.642Z,45.10
2023-03-28T11:36:23.908Z,44.40
2023-03-28T11:39:44.602Z,44.70
2023-03-28T11:42:57.005Z,44.10
2023-03-28T11:46:10.098Z,44.60
2023-03-28T11:49:21.401Z,44.90
2023-03-28T11:52:27.593Z,44.90
2023-03-28T11:55:35.332Z,44.40
2023-03-28T11:58:42.895Z,43.50
2023-03-28T12:01:51.941Z,43.80
2023-03-28T12:05:01.712Z,42.20
2023-03-28T12:08:12.504Z,41.40
2023-03-28T12:11:21.634Z,42.60
2023-03-28T12:14:36.123Z,41.70
2023-03-28T12:17:44.404Z,42.10
2023-03-28T12:20:51.934Z,41.80
2023-03-28T12:24:04.938Z,42.70
2023-03-28T12:27:20.514Z,41.50
2023-03-28T12:30:31.204Z,41.20
2023-03-28T12:33:56.183Z,41.60
2023-03-28T12:37:06.185Z,42.30
2023-03-28T12:40:23.881Z,43.00
2023-03-28T12:43:31.545Z,41.90
2023-03-28T12:46:38.318Z,41.30
2023-03-28T12:49:46.709Z,40.70
2023-03-28T12:52:50.494Z,41.10
2023-03-28T12:55:54.158Z,41.70
2023-03-28T12:58:59.902Z,40.20
2023-03-28T13:02:10.961Z,40.60
2023-03-28T13:05:23.957Z,41.90
2023-03-28T13:08:37.734Z,41.80
2023-03-28T13:11:50.843Z,41.20
2023-03-28T13:15:01.988Z,41.60
2023-03-28T13:18:27.927Z,41.60
2023-03-28T13:21:46.289Z,40.70
2023-03-28T13:24:49.378Z,40.70
2023-03-28T13:27:55.341Z,40.70
2023-03-28T13:31:13.312Z,41.30
2023-03-28T13:34:25.117Z,40.90
2023-03-28T13:37:46.985Z,41.00
2023-03-28T13:40:54.454Z,41.50
2023-03-28T13:44:00.314Z,42.30
2023-03-28T13:47:03.669Z,43.10
2023-03-28T13:50:20.676Z,42.90
2023-03-28T13:53:34.626Z,42.60
2023-03-28T13:56:46.770Z,43.20
2023-03-28T13:59:54.609Z,41.50
2023-03-28T14:03:03.975Z,41.70
2023-03-28T14:06:20.162Z,41.50
2023-03-28T14:09:33.508Z,40.80
2023-03-28T14:12:37.185Z,41.10
2023-03-28T14:15:42.098Z,41.30
2023-03-28T14:18:47.689Z,40.40
2023-03-28T14:21:51.196Z,40.70
2023-03-28T14:24:58.951Z,40.60
2023-03-28T14:28:09.453Z,40.80
2023-03-28T14:31:14.568Z,41.00
2023-03-28T14:34:24.019Z,40.80
2023-03-28T14:37:29.793Z,41.40
2023-03-28T14:40:36.289Z,40.80
2023-03-28T14:43:39.434Z,40.00
2023-03-28T14:46:42.474Z,40.10
2023-03-28T14:49:46.833Z,40.70
2023-03-28T14:52:49.893Z,40.30
2023-03-28T14:55:57.658Z,40.50
2023-03-28T14:59:05.474Z,40.40
2023-03-28T15:02:20.043Z,40.50
2023-03-28T15:05:24.078Z,40.30
2023-03-28T15:08:34.090Z,40.50
2023-03-28T15:11:41.196Z,40.40
2023-03-28T15:14:46.832Z,40.20
2023-03-28T15:17:51.673Z,40.10
2023-03-28T15:20:57.550Z,39.30
2023-03-28T15:24:03.627Z,39.10
2023-03-28T15:27:15.281Z,38.70
2023-03-28T15:30:21.135Z,38.50
2023-03-28T15:33:25.977Z,39.80
2023-03-28T15:36:35.477Z,39.20
2023-03-28T15:39:38.499Z,39.80
2023-03-28T15:42:47.190Z,40.00
2023-03-28T15:45:56.995Z,40.00
2023-03-28T15:49:03.073Z,39.90
2023-03-28T15:52:09.533Z,39.90
2023-03-28T15:55:22.176Z,40.40
2023-03-28T15:58:26.733Z,40.90
2023-03-28T16:01:31.975Z,41.30
2023-03-28T16:04:35.448Z,41.50
2023-03-28T16:07:48.926Z,41.70
2023-03-28T16:10:52.044Z,42.00
2023-03-28T16:13:56.294Z,42.10
2023-03-28T16:16:59.533Z,42.20
2023-03-28T16:20:03.796Z,43.00
2023-03-28T16:23:08.019Z,43.50
2023-03-28T16:26:11.171Z,43.00
2023-03-28T16:29:15.748Z,42.90
2023-03-28T16:32:18.988Z,43.40
2023-03-28T16:35:22.719Z,43.60
2023-03-28T16:38:25.907Z,43.80
2023-03-28T16:41:29.098Z,43.70
2023-03-28T16:44:34.125Z,44.20
2023-03-28T16:47:38.637Z,44.50
2023-03-28T16:50:41.813Z,44.10
2023-03-28T16:53:44.884Z,44.40
2023-03-28T16:56:48.355Z,43.70
2023-03-28T16:59:52.794Z,43.90
2023-03-28T17:02:56.255Z,44.40
2023-03-28T17:06:03.136Z,44.60
2023-03-28T17:09:06.743Z,44.40
2023-03-28T17:12:09.924Z,44.70
2023-03-28T17:15:14.681Z,44.90
2023-03-28T17:18:17.686Z,45.40
2023-03-28T17:21:21.398Z,45.70
2023-03-28T17:28:15.130Z,46.00
2023-03-28T17:31:21.216Z,46.50
2023-03-28T17:34:24.863Z,46.30
2023-03-28T17:37:27.822Z,46.60
2023-03-28T17:40:31.139Z,46.90
2023-03-28T17:43:34.112Z,47.00
2023-03-28T17:46:39.302Z,46.90
2023-03-28T17:49:42.538Z,47.20
2023-03-28T17:52:45.759Z,47.50
2023-03-28T17:55:48.835Z,47.40
2023-03-28T17:58:51.915Z,47.60
2023-03-28T18:01:56.368Z,47.70
2023-03-28T18:04:59.739Z,47.70
2023-03-28T18:08:02.838Z,47.80
2023-03-28T18:11:08.588Z,48.30
2023-03-28T18:14:12.405Z,48.30
2023-03-28T18:17:17.121Z,48.60
2023-03-28T18:20:21.752Z,48.90
2023-03-28T18:23:26.412Z,48.90
2023-03-28T18:26:30.616Z,49.20
2023-03-28T18:29:34.083Z,49.40
2023-03-28T18:32:38.474Z,49.70
2023-03-28T18:35:42.052Z,49.80
2023-03-28T18:38:46.492Z,50.10
2023-03-28T18:41:49.481Z,50.40
2023-03-28T18:44:52.705Z,50.50
2023-03-28T18:47:57.291Z,50.50
2023-03-28T18:51:02.002Z,50.70
2023-03-28T18:54:05.226Z,50.50
2023-03-28T18:57:08.340Z,50.80
2023-03-28T19:00:17.666Z,50.80
2023-03-28T19:03:22.522Z,50.90
2023-03-28T19:06:28.027Z,51.10
2023-03-28T19:13:04.619Z,51.20
2023-03-28T19:16:13.664Z,51.70
2023-03-28T19:22:49.713Z,52.60
2023-03-28T19:25:53.064Z,52.90
2023-03-28T19:28:56.614Z,53.70
2023-03-28T19:32:00.015Z,53.60
2023-03-28T19:35:06.098Z,54.00
2023-03-28T19:38:10.290Z,53.90
2023-03-28T19:41:19.890Z,54.10
2023-03-28T19:44:24.146Z,54.70
2023-03-28T19:47:27.860Z,54.80
2023-03-28T19:50:33.706Z,55.40
2023-03-28T19:53:37.688Z,55.20
2023-03-28T19:56:42.149Z,55.30
2023-03-28T19:59:46.019Z,55.40
2023-03-28T20:02:49.913Z,55.50
2023-03-28T20:05:56.168Z,55.70
2023-03-28T20:08:59.880Z,56.10
2023-03-28T20:12:04.720Z,56.00
2023-03-28T20:15:09.988Z,56.20
2023-03-28T20:18:20.160Z,56.20
2023-03-28T20:21:28.979Z,56.40
2023-03-28T20:24:33.246Z,56.60
2023-03-28T20:27:39.327Z,56.80
2023-03-28T20:30:46.003Z,56.90
2023-03-28T20:33:49.883Z,57.10
2023-03-28T20:36:57.258Z,57.20
2023-03-28T20:40:05.265Z,57.30
2023-03-28T20:43:10.139Z,57.40
2023-03-28T20:46:14.849Z,57.50
2023-03-28T20:49:20.483Z,57.70
2023-03-28T20:52:25.933Z,57.90
2023-03-28T20:55:31.311Z,58.00
2023-03-28T20:58:39.712Z,58.20
2023-03-28T21:01:46.563Z,58.30
2023-03-28T21:04:50.194Z,58.50
2023-03-28T21:07:59.460Z,58.70
2023-03-28T21:11:03.730Z,58.80
2023-03-28T21:14:08.148Z,59.00
2023-03-28T21:17:22.134Z,59.20
2023-03-28T21:20:26.129Z,59.40
2023-03-28T21:23:31.305Z,59.60
2023-03-28T21:26:35.954Z,59.70
2023-03-28T21:29:39.679Z,59.70
2023-03-28T21:32:43.455Z,59.90
2023-03-28T21:35:50.659Z,59.90
2023-03-28T21:38:56.506Z,59.90
2023-03-28T21:42:00.156Z,60.00
2023-03-28T21:45:04.020Z,60.00
2023-03-28T21:48:07.961Z,60.10
2023-03-28T21:51:12.143Z,60.00
2023-03-28T21:54:17.194Z,60.10
2023-03-28T21:57:20.756Z,60.10
2023-03-28T22:00:24.298Z,60.20
2023-03-28T22:03:29.728Z,60.40
2023-03-28T22:06:33.391Z,60.40
2023-03-28T22:09:39.432Z,60.50
2023-03-28T22:12:44.805Z,60.60
2023-03-28T22:15:48.236Z,60.80
2023-03-28T22:18:52.569Z,61.10
2023-03-28T22:21:56.771Z,61.30
2023-03-28T22:25:01.825Z,61.10
2023-03-28T22:28:06.048Z,61.00
2023-03-28T22:31:09.455Z,61.00
2023-03-28T22:34:13.240Z,61.10
2023-03-28T22:37:16.898Z,61.20
2023-03-28T22:40:23.599Z,61.40
2023-03-28T22:43:29.083Z,61.50
2023-03-28T22:46:32.438Z,61.50
2023-03-28T22:49:36.209Z,61.70
2023-03-28T22:52:42.106Z,61.80
2023-03-28T22:55:47.032Z,61.90
2023-03-28T22:58:51.081Z,61.80
2023-03-28T23:01:55.446Z,62.10
2023-03-28T23:05:00.148Z,62.20
2023-03-28T23:08:03.960Z,62.30
2023-03-28T23:11:09.399Z,62.30
2023-03-28T23:14:13.232Z,62.40
2023-03-28T23:17:16.483Z,62.50
2023-03-28T23:20:21.332Z,62.70
2023-03-28T23:23:24.497Z,62.80
2023-03-28T23:26:29.223Z,62.90
2023-03-28T23:29:32.788Z,63.00
2023-03-28T23:32:36.275Z,63.20
2023-03-28T23:35:48.308Z,63.40
2023-03-28T23:38:51.702Z,63.50
2023-03-28T23:41:56.833Z,63.70
2023-03-28T23:45:00.330Z,63.90
2023-03-28T23:48:04.178Z,64.40
2023-03-28T23:51:09.145Z,64.40
2023-03-28T23:54:13.003Z,64.50
2023-03-28T23:57:18.334Z,64.70
